Terminal Aerodrome Forecast
Issued by NWS

Home | Current Version | Previous Version | Text Only | Print | Product List | Glossary On
Versions: 1 2 3 4 5 6 7 8 9 10 11 12 13 14 15 16 17 18 19 20 21 22 23 24 25 26
000
FTUS41 KBGM 041100
TAFELM
TAF
KELM 041136Z 0412/0512 VRB04KT 5SM BR OVC025
      TEMPO 0412/0414 2SM -FZDZ BR OVC015
     FM041500 28010KT P6SM OVC025
     FM050000 31007KT P6SM OVC025=

USA.gov is the U.S. government's official web portal to all federal, state and local government web resources and services.